sensor_id;sensor_type;location;lat;lon;timestamp;pressure;altitude;pressure_sealevel;temperature;humidity
40245;BME280;25963;42.694;23.600;2022-12-20T00:01:16;97076.84;;;-0.48;100.00
40245;BME280;25963;42.694;23.600;2022-12-20T00:03:42;97063.53;;;-0.56;100.00
40245;BME280;25963;42.694;23.600;2022-12-20T00:06:09;97077.34;;;-0.42;100.00
40245;BME280;25963;42.694;23.600;2022-12-20T00:08:35;97077.88;;;-0.50;100.00
40245;BME280;25963;42.694;23.600;2022-12-20T00:11:02;97078.56;;;-0.48;100.00
40245;BME280;25963;42.694;23.600;2022-12-20T00:13:29;97081.38;;;-0.64;100.00
40245;BME280;25963;42.694;23.600;2022-12-20T00:16:09;97090.44;;;-0.44;100.00
40245;BME280;25963;42.694;23.600;2022-12-20T00:18:35;97083.06;;;-0.37;100.00
40245;BME280;25963;42.694;23.600;2022-12-20T00:21:02;97088.78;;;-0.32;100.00
40245;BME280;25963;42.694;23.600;2022-12-20T00:23:28;97090.22;;;-0.28;100.00
40245;BME280;25963;42.694;23.600;2022-12-20T00:26:16;97090.44;;;-0.44;100.00
40245;BME280;25963;42.694;23.600;2022-12-20T00:28:42;97092.91;;;-0.42;100.00
40245;BME280;25963;42.694;23.600;2022-12-20T00:31:09;97094.38;;;-0.38;100.00
40245;BME280;25963;42.694;23.600;2022-12-20T00:33:37;97094.16;;;-0.35;100.00
40245;BME280;25963;42.694;23.600;2022-12-20T00:36:04;97091.66;;;-0.37;100.00
40245;BME280;25963;42.694;23.600;2022-12-20T00:38:30;97092.91;;;-0.42;100.00
40245;BME280;25963;42.694;23.600;2022-12-20T00:41:05;97099.44;;;-0.50;100.00
40245;BME280;25963;42.694;23.600;2022-12-20T00:43:31;97091.31;;;-0.58;100.00
40245;BME280;25963;42.694;23.600;2022-12-20T00:45:57;97085.81;;;-0.66;100.00
40245;BME280;25963;42.694;23.600;2022-12-20T00:48:24;97087.06;;;-0.72;100.00
40245;BME280;25963;42.694;23.600;2022-12-20T00:50:50;97089.41;;;-0.81;100.00
40245;BME280;25963;42.694;23.600;2022-12-20T00:53:15;97092.81;;;-0.81;100.00
40245;BME280;25963;42.694;23.600;2022-12-20T00:55:42;97089.97;;;-0.63;100.00
40245;BME280;25963;42.694;23.600;2022-12-20T00:58:08;97070.47;;;-0.69;100.00
40245;BME280;25963;42.694;23.600;2022-12-20T01:00:34;97089.31;;;-0.80;100.00
40245;BME280;25963;42.694;23.600;2022-12-20T01:02:59;97087.25;;;-0.75;100.00
40245;BME280;25963;42.694;23.600;2022-12-20T01:05:25;97101.75;;;-0.72;100.00
40245;BME280;25963;42.694;23.600;2022-12-20T01:07:50;97097.28;;;-0.83;100.00
40245;BME280;25963;42.694;23.600;2022-12-20T01:10:16;97092.31;;;-0.86;100.00
40245;BME280;25963;42.694;23.600;2022-12-20T01:12:42;97086.19;;;-0.85;100.00
40245;BME280;25963;42.694;23.600;2022-12-20T01:15:08;97080.19;;;-0.85;100.00
40245;BME280;25963;42.694;23.600;2022-12-20T01:17:33;97077.47;;;-0.84;100.00
40245;BME280;25963;42.694;23.600;2022-12-20T01:19:59;97074.78;;;-0.82;100.00
40245;BME280;25963;42.694;23.600;2022-12-20T01:22:24;97075.00;;;-0.85;100.00
40245;BME280;25963;42.694;23.600;2022-12-20T01:24:50;97071.06;;;-0.78;100.00
40245;BME280;25963;42.694;23.600;2022-12-20T01:27:15;97054.06;;;-0.82;100.00
40245;BME280;25963;42.694;23.600;2022-12-20T01:29:40;97058.91;;;-0.90;100.00
40245;BME280;25963;42.694;23.600;2022-12-20T01:32:06;97059.25;;;-0.82;100.00
40245;BME280;25963;42.694;23.600;2022-12-20T01:34:31;97054.34;;;-0.87;100.00
40245;BME280;25963;42.694;23.600;2022-12-20T01:36:56;97055.00;;;-0.83;100.00
40245;BME280;25963;42.694;23.600;2022-12-20T01:39:22;97061.09;;;-0.84;100.00
40245;BME280;25963;42.694;23.600;2022-12-20T01:41:48;97058.81;;;-0.89;100.00
40245;BME280;25963;42.694;23.600;2022-12-20T01:46:43;97040.63;;;-0.75;100.00
40245;BME280;25963;42.694;23.600;2022-12-20T01:49:31;97043.28;;;-0.76;100.00
40245;BME280;25963;42.694;23.600;2022-12-20T01:52:06;97050.44;;;-0.93;100.00
40245;BME280;25963;42.694;23.600;2022-12-20T01:54:37;97044.38;;;-0.93;100.00
40245;BME280;25963;42.694;23.600;2022-12-20T01:57:28;97041.19;;;-0.97;100.00
40245;BME280;25963;42.694;23.600;2022-12-20T01:59:56;97027.31;;;-0.96;100.00
40245;BME280;25963;42.694;23.600;2022-12-20T02:02:22;97039.31;;;-0.95;100.00
40245;BME280;25963;42.694;23.600;2022-12-20T02:04:47;97026.03;;;-1.03;100.00
40245;BME280;25963;42.694;23.600;2022-12-20T02:07:18;97022.69;;;-1.05;100.00
40245;BME280;25963;42.694;23.600;2022-12-20T02:09:45;97019.41;;;-1.07;100.00
40245;BME280;25963;42.694;23.600;2022-12-20T02:12:22;97017.22;;;-1.13;100.00
40245;BME280;25963;42.694;23.600;2022-12-20T02:29:39;97031.16;;;-1.28;100.00
40245;BME280;25963;42.694;23.600;2022-12-20T02:32:21;97029.28;;;-1.26;100.00
40245;BME280;25963;42.694;23.600;2022-12-20T02:34:50;97018.59;;;-1.34;100.00
40245;BME280;25963;42.694;23.600;2022-12-20T02:37:16;97025.44;;;-1.33;100.00
40245;BME280;25963;42.694;23.600;2022-12-20T02:39:43;97010.09;;;-1.36;100.00
40245;BME280;25963;42.694;23.600;2022-12-20T02:42:14;97012.88;;;-1.40;100.00
40245;BME280;25963;42.694;23.600;2022-12-20T02:44:48;97010.28;;;-1.40;100.00
40245;BME280;25963;42.694;23.600;2022-12-20T02:47:35;97021.28;;;-1.36;100.00
40245;BME280;25963;42.694;23.600;2022-12-20T02:50:05;97016.22;;;-1.38;100.00
40245;BME280;25963;42.694;23.600;2022-12-20T02:52:32;97004.31;;;-1.27;100.00
40245;BME280;25963;42.694;23.600;2022-12-20T02:54:59;97001.38;;;-1.35;100.00
40245;BME280;25963;42.694;23.600;2022-12-20T02:58:01;97002.31;;;-1.36;100.00
40245;BME280;25963;42.694;23.600;2022-12-20T03:00:33;97003.75;;;-1.45;100.00
40245;BME280;25963;42.694;23.600;2022-12-20T03:03:02;96997.19;;;-1.51;100.00
40245;BME280;25963;42.694;23.600;2022-12-20T03:05:50;97001.75;;;-1.54;100.00
40245;BME280;25963;42.694;23.600;2022-12-20T03:08:15;96999.44;;;-1.59;100.00
40245;BME280;25963;42.694;23.600;2022-12-20T03:10:41;97002.47;;;-1.52;100.00
40245;BME280;25963;42.694;23.600;2022-12-20T03:13:07;97007.69;;;-1.40;100.00
40245;BME280;25963;42.694;23.600;2022-12-20T03:15:32;97006.88;;;-1.40;100.00
40245;BME280;25963;42.694;23.600;2022-12-20T03:17:58;97004.88;;;-1.49;100.00
40245;BME280;25963;42.694;23.600;2022-12-20T03:20:23;96989.81;;;-1.57;100.00
40245;BME280;25963;42.694;23.600;2022-12-20T03:22:48;97005.50;;;-1.46;100.00
40245;BME280;25963;42.694;23.600;2022-12-20T03:25:14;97008.09;;;-1.46;100.00
40245;BME280;25963;42.694;23.600;2022-12-20T03:27:39;97004.53;;;-1.57;100.00
40245;BME280;25963;42.694;23.600;2022-12-20T03:30:05;97005.97;;;-1.53;100.00
40245;BME280;25963;42.694;23.600;2022-12-20T03:32:31;97006.81;;;-1.53;100.00
40245;BME280;25963;42.694;23.600;2022-12-20T03:34:56;97008.06;;;-1.58;100.00
40245;BME280;25963;42.694;23.600;2022-12-20T03:37:22;97008.78;;;-1.71;100.00
40245;BME280;25963;42.694;23.600;2022-12-20T03:39:48;97006.31;;;-1.72;100.00
40245;BME280;25963;42.694;23.600;2022-12-20T03:42:13;97000.94;;;-1.69;100.00
40245;BME280;25963;42.694;23.600;2022-12-20T03:44:39;97004.19;;;-1.80;100.00
40245;BME280;25963;42.694;23.600;2022-12-20T03:47:04;97012.31;;;-1.72;100.00
40245;BME280;25963;42.694;23.600;2022-12-20T03:49:29;97002.22;;;-1.62;100.00
40245;BME280;25963;42.694;23.600;2022-12-20T03:51:55;97002.09;;;-1.73;100.00
40245;BME280;25963;42.694;23.600;2022-12-20T03:54:20;96999.31;;;-1.70;100.00
40245;BME280;25963;42.694;23.600;2022-12-20T03:56:46;96990.06;;;-1.74;100.00
40245;BME280;25963;42.694;23.600;2022-12-20T03:59:11;96993.47;;;-1.74;100.00
40245;BME280;25963;42.694;23.600;2022-12-20T04:01:36;96986.78;;;-1.91;100.00
40245;BME280;25963;42.694;23.600;2022-12-20T04:04:03;96983.94;;;-2.00;100.00
40245;BME280;25963;42.694;23.600;2022-12-20T04:06:28;96989.19;;;-2.02;100.00
40245;BME280;25963;42.694;23.600;2022-12-20T04:08:54;96985.59;;;-1.99;100.00
40245;BME280;25963;42.694;23.600;2022-12-20T04:11:20;96975.50;;;-2.04;100.00
40245;BME280;25963;42.694;23.600;2022-12-20T04:13:50;96987.38;;;-2.14;100.00
40245;BME280;25963;42.694;23.600;2022-12-20T04:16:18;96986.91;;;-2.21;100.00
40245;BME280;25963;42.694;23.600;2022-12-20T04:18:44;96981.38;;;-2.29;100.00
40245;BME280;25963;42.694;23.600;2022-12-20T04:21:10;96973.25;;;-2.37;100.00
40245;BME280;25963;42.694;23.600;2022-12-20T04:23:38;96983.31;;;-2.47;100.00
40245;BME280;25963;42.694;23.600;2022-12-20T04:26:05;96975.00;;;-2.52;100.00
40245;BME280;25963;42.694;23.600;2022-12-20T04:28:31;96965.88;;;-2.58;100.00
40245;BME280;25963;42.694;23.600;2022-12-20T04:30:57;96970.66;;;-2.52;100.00
40245;BME280;25963;42.694;23.600;2022-12-20T04:33:23;96977.06;;;-2.57;100.00
40245;BME280;25963;42.694;23.600;2022-12-20T04:35:49;96967.78;;;-2.76;100.00
40245;BME280;25963;42.694;23.600;2022-12-20T04:38:14;96974.63;;;-2.74;100.00
40245;BME280;25963;42.694;23.600;2022-12-20T04:40:40;96981.19;;;-2.83;100.00
40245;BME280;25963;42.694;23.600;2022-12-20T04:43:06;96970.75;;;-2.82;100.00
40245;BME280;25963;42.694;23.600;2022-12-20T04:45:32;96975.72;;;-2.93;100.00
40245;BME280;25963;42.694;23.600;2022-12-20T04:47:58;96965.41;;;-2.93;100.00
40245;BME280;25963;42.694;23.600;2022-12-20T04:50:24;96974.00;;;-3.08;100.00
40245;BME280;25963;42.694;23.600;2022-12-20T04:52:49;96966.09;;;-3.05;100.00
40245;BME280;25963;42.694;23.600;2022-12-20T04:55:38;96974.41;;;-3.00;100.00
40245;BME280;25963;42.694;23.600;2022-12-20T04:58:04;96972.81;;;-3.17;100.00
40245;BME280;25963;42.694;23.600;2022-12-20T05:00:29;96971.13;;;-3.18;100.00
40245;BME280;25963;42.694;23.600;2022-12-20T05:02:55;96961.81;;;-3.21;100.00
40245;BME280;25963;42.694;23.600;2022-12-20T05:05:20;96964.03;;;-3.14;100.00
40245;BME280;25963;42.694;23.600;2022-12-20T05:07:46;96973.13;;;-3.23;100.00
40245;BME280;25963;42.694;23.600;2022-12-20T05:10:11;96971.97;;;-3.17;100.00
40245;BME280;25963;42.694;23.600;2022-12-20T05:12:37;96970.72;;;-3.40;100.00
40245;BME280;25963;42.694;23.600;2022-12-20T05:15:02;96967.72;;;-3.49;100.00
40245;BME280;25963;42.694;23.600;2022-12-20T05:17:28;96972.84;;;-3.33;100.00
40245;BME280;25963;42.694;23.600;2022-12-20T05:19:54;96970.59;;;-3.39;100.00
40245;BME280;25963;42.694;23.600;2022-12-20T05:22:19;96974.28;;;-3.43;100.00
40245;BME280;25963;42.694;23.600;2022-12-20T05:25:03;96977.53;;;-3.39;100.00
40245;BME280;25963;42.694;23.600;2022-12-20T05:27:47;96977.03;;;-3.46;100.00
40245;BME280;25963;42.694;23.600;2022-12-20T05:30:13;96973.53;;;-3.45;100.00
40245;BME280;25963;42.694;23.600;2022-12-20T05:32:40;96975.53;;;-3.50;100.00
40245;BME280;25963;42.694;23.600;2022-12-20T05:35:06;96962.09;;;-3.71;100.00
40245;BME280;25963;42.694;23.600;2022-12-20T05:37:32;96972.34;;;-3.70;100.00
40245;BME280;25963;42.694;23.600;2022-12-20T05:39:57;96970.59;;;-3.69;100.00
40245;BME280;25963;42.694;23.600;2022-12-20T05:42:22;96985.03;;;-3.51;100.00
40245;BME280;25963;42.694;23.600;2022-12-20T05:44:48;96981.56;;;-3.65;100.00
40245;BME280;25963;42.694;23.600;2022-12-20T05:47:13;96990.06;;;-3.63;100.00
40245;BME280;25963;42.694;23.600;2022-12-20T05:49:39;96985.13;;;-3.68;100.00
40245;BME280;25963;42.694;23.600;2022-12-20T05:52:05;96989.06;;;-3.61;100.00
40245;BME280;25963;42.694;23.600;2022-12-20T05:54:30;96983.25;;;-3.64;100.00
40245;BME280;25963;42.694;23.600;2022-12-20T05:56:55;96985.56;;;-3.76;100.00
40245;BME280;25963;42.694;23.600;2022-12-20T05:59:21;96972.78;;;-3.93;100.00
40245;BME280;25963;42.694;23.600;2022-12-20T06:01:46;96982.34;;;-3.79;100.00
40245;BME280;25963;42.694;23.600;2022-12-20T06:04:11;96986.34;;;-3.74;100.00
40245;BME280;25963;42.694;23.600;2022-12-20T06:06:37;96986.56;;;-3.78;100.00
40245;BME280;25963;42.694;23.600;2022-12-20T06:09:02;96980.59;;;-3.79;100.00
40245;BME280;25963;42.694;23.600;2022-12-20T06:11:28;96979.75;;;-3.63;100.00
40245;BME280;25963;42.694;23.600;2022-12-20T06:13:53;96989.38;;;-3.51;100.00
40245;BME280;25963;42.694;23.600;2022-12-20T06:16:19;96991.63;;;-3.61;100.00
40245;BME280;25963;42.694;23.600;2022-12-20T06:18:45;96993.78;;;-3.53;100.00
40245;BME280;25963;42.694;23.600;2022-12-20T06:21:11;96989.28;;;-3.50;100.00
40245;BME280;25963;42.694;23.600;2022-12-20T06:23:37;96991.03;;;-3.50;100.00
40245;BME280;25963;42.694;23.600;2022-12-20T06:26:04;96995.53;;;-3.38;100.00
40245;BME280;25963;42.694;23.600;2022-12-20T06:28:30;96998.00;;;-3.36;100.00
40245;BME280;25963;42.694;23.600;2022-12-20T06:30:56;96993.66;;;-3.36;100.00
40245;BME280;25963;42.694;23.600;2022-12-20T06:33:23;96994.88;;;-3.27;100.00
40245;BME280;25963;42.694;23.600;2022-12-20T06:35:49;96997.22;;;-3.23;100.00
40245;BME280;25963;42.694;23.600;2022-12-20T06:38:15;96988.38;;;-3.18;100.00
40245;BME280;25963;42.694;23.600;2022-12-20T06:40:40;96989.69;;;-3.11;100.00
40245;BME280;25963;42.694;23.600;2022-12-20T06:43:05;96987.44;;;-3.17;100.00
40245;BME280;25963;42.694;23.600;2022-12-20T06:45:31;96994.13;;;-3.13;100.00
40245;BME280;25963;42.694;23.600;2022-12-20T06:47:56;96985.38;;;-3.11;100.00
40245;BME280;25963;42.694;23.600;2022-12-20T06:50:22;96986.25;;;-2.96;100.00
40245;BME280;25963;42.694;23.600;2022-12-20T06:52:48;96980.25;;;-2.82;100.00
40245;BME280;25963;42.694;23.600;2022-12-20T06:55:14;96981.53;;;-2.89;100.00
40245;BME280;25963;42.694;23.600;2022-12-20T06:57:39;96981.03;;;-3.10;100.00
40245;BME280;25963;42.694;23.600;2022-12-20T07:00:06;96987.13;;;-2.97;100.00
40245;BME280;25963;42.694;23.600;2022-12-20T07:02:33;96975.00;;;-2.81;100.00
40245;BME280;25963;42.694;23.600;2022-12-20T07:04:58;96980.00;;;-2.78;100.00
40245;BME280;25963;42.694;23.600;2022-12-20T07:07:24;96973.25;;;-2.66;100.00
40245;BME280;25963;42.694;23.600;2022-12-20T07:09:50;96963.94;;;-2.68;100.00
40245;BME280;25963;42.694;23.600;2022-12-20T07:12:15;96967.06;;;-2.63;100.00
40245;BME280;25963;42.694;23.600;2022-12-20T07:14:40;96973.25;;;-2.52;100.00
40245;BME280;25963;42.694;23.600;2022-12-20T07:17:06;96969.13;;;-2.54;100.00
40245;BME280;25963;42.694;23.600;2022-12-20T07:19:32;96972.97;;;-2.47;100.00
40245;BME280;25963;42.694;23.600;2022-12-20T07:21:58;96970.97;;;-2.42;100.00
40245;BME280;25963;42.694;23.600;2022-12-20T07:24:23;96971.41;;;-2.35;100.00
40245;BME280;25963;42.694;23.600;2022-12-20T07:26:49;96969.84;;;-2.38;100.00
40245;BME280;25963;42.694;23.600;2022-12-20T07:29:14;96963.66;;;-2.21;100.00
40245;BME280;25963;42.694;23.600;2022-12-20T07:31:40;96958.19;;;-2.31;100.00
40245;BME280;25963;42.694;23.600;2022-12-20T07:34:05;96966.31;;;-2.22;100.00
40245;BME280;25963;42.694;23.600;2022-12-20T07:36:31;96962.44;;;-2.15;100.00
40245;BME280;25963;42.694;23.600;2022-12-20T07:38:57;96960.50;;;-2.12;100.00
40245;BME280;25963;42.694;23.600;2022-12-20T07:41:22;96968.94;;;-1.95;100.00
40245;BME280;25963;42.694;23.600;2022-12-20T07:43:49;96965.34;;;-1.93;100.00
40245;BME280;25963;42.694;23.600;2022-12-20T07:46:15;96954.25;;;-1.95;100.00
40245;BME280;25963;42.694;23.600;2022-12-20T07:48:41;96960.59;;;-1.86;100.00
40245;BME280;25963;42.694;23.600;2022-12-20T07:51:16;96958.84;;;-1.86;100.00
40245;BME280;25963;42.694;23.600;2022-12-20T07:53:47;96951.47;;;-1.65;100.00
40245;BME280;25963;42.694;23.600;2022-12-20T07:56:15;96952.25;;;-1.50;100.00
40245;BME280;25963;42.694;23.600;2022-12-20T07:58:41;96952.63;;;-1.29;100.00
40245;BME280;25963;42.694;23.600;2022-12-20T08:01:08;96942.91;;;-1.25;100.00
40245;BME280;25963;42.694;23.600;2022-12-20T08:03:59;96947.56;;;-1.30;100.00
40245;BME280;25963;42.694;23.600;2022-12-20T08:06:27;96949.09;;;-1.41;100.00
40245;BME280;25963;42.694;23.600;2022-12-20T08:08:56;96941.16;;;-1.12;100.00
40245;BME280;25963;42.694;23.600;2022-12-20T08:11:23;96929.78;;;-0.97;100.00
40245;BME280;25963;42.694;23.600;2022-12-20T08:13:50;96931.03;;;-0.89;100.00
40245;BME280;25963;42.694;23.600;2022-12-20T08:16:16;96939.84;;;-0.79;100.00
40245;BME280;25963;42.694;23.600;2022-12-20T08:18:41;96930.22;;;-0.77;100.00
40245;BME280;25963;42.694;23.600;2022-12-20T08:21:06;96925.53;;;-0.72;100.00
40245;BME280;25963;42.694;23.600;2022-12-20T08:23:33;96922.19;;;-0.49;100.00
40245;BME280;25963;42.694;23.600;2022-12-20T08:26:00;96919.59;;;-0.36;100.00
40245;BME280;25963;42.694;23.600;2022-12-20T08:28:26;96921.91;;;-0.57;100.00
40245;BME280;25963;42.694;23.600;2022-12-20T08:30:51;96926.56;;;-0.62;100.00
40245;BME280;25963;42.694;23.600;2022-12-20T08:33:17;96911.59;;;-0.46;100.00
40245;BME280;25963;42.694;23.600;2022-12-20T08:35:43;96923.66;;;-0.44;100.00
40245;BME280;25963;42.694;23.600;2022-12-20T08:38:09;96915.72;;;-0.30;100.00
40245;BME280;25963;42.694;23.600;2022-12-20T08:40:34;96920.81;;;-0.29;100.00
40245;BME280;25963;42.694;23.600;2022-12-20T08:43:00;96917.44;;;-0.05;100.00
40245;BME280;25963;42.694;23.600;2022-12-20T08:45:25;96914.19;;;0.04;100.00
40245;BME280;25963;42.694;23.600;2022-12-20T08:47:52;96908.28;;;0.26;100.00
40245;BME280;25963;42.694;23.600;2022-12-20T08:50:17;96897.63;;;0.18;100.00
40245;BME280;25963;42.694;23.600;2022-12-20T08:52:43;96901.16;;;0.17;100.00
40245;BME280;25963;42.694;23.600;2022-12-20T08:55:09;96908.56;;;0.10;100.00
40245;BME280;25963;42.694;23.600;2022-12-20T08:57:34;96900.50;;;0.02;99.09
40245;BME280;25963;42.694;23.600;2022-12-20T08:59:59;96902.66;;;0.32;98.32
40245;BME280;25963;42.694;23.600;2022-12-20T09:02:25;96892.97;;;0.58;100.00
40245;BME280;25963;42.694;23.600;2022-12-20T09:04:53;96892.25;;;0.32;97.51
40245;BME280;25963;42.694;23.600;2022-12-20T09:07:18;96889.59;;;0.69;100.00
40245;BME280;25963;42.694;23.600;2022-12-20T09:09:45;96889.41;;;0.95;98.76
40245;BME280;25963;42.694;23.600;2022-12-20T09:12:10;96890.69;;;0.89;93.63
40245;BME280;25963;42.694;23.600;2022-12-20T09:14:36;96875.31;;;0.86;93.97
40245;BME280;25963;42.694;23.600;2022-12-20T09:17:02;96872.41;;;0.55;93.92
40245;BME280;25963;42.694;23.600;2022-12-20T09:19:27;96867.91;;;0.46;93.16
40245;BME280;25963;42.694;23.600;2022-12-20T09:21:52;96855.78;;;0.58;95.37
40245;BME280;25963;42.694;23.600;2022-12-20T09:24:19;96850.56;;;0.93;99.31
40245;BME280;25963;42.694;23.600;2022-12-20T09:26:44;96852.94;;;1.30;100.00
40245;BME280;25963;42.694;23.600;2022-12-20T09:29:10;96849.94;;;1.34;95.49
40245;BME280;25963;42.694;23.600;2022-12-20T09:31:35;96848.75;;;1.61;94.08
40245;BME280;25963;42.694;23.600;2022-12-20T09:34:01;96830.19;;;1.66;99.66
40245;BME280;25963;42.694;23.600;2022-12-20T09:36:28;96835.56;;;1.96;100.00
40245;BME280;25963;42.694;23.600;2022-12-20T09:38:55;96839.19;;;2.05;94.27
40245;BME280;25963;42.694;23.600;2022-12-20T09:41:28;96836.44;;;2.18;89.35
40245;BME280;25963;42.694;23.600;2022-12-20T09:43:54;96831.34;;;2.16;94.99
40245;BME280;25963;42.694;23.600;2022-12-20T09:46:21;96832.66;;;2.22;89.30
40245;BME280;25963;42.694;23.600;2022-12-20T09:48:47;96823.06;;;2.22;89.59
40245;BME280;25963;42.694;23.600;2022-12-20T09:51:44;96819.50;;;2.44;89.54
40245;BME280;25963;42.694;23.600;2022-12-20T09:54:32;96810.88;;;2.44;88.02
40245;BME280;25963;42.694;23.600;2022-12-20T09:59:48;96807.06;;;2.69;89.37
40245;BME280;25963;42.694;23.600;2022-12-20T10:02:18;96796.13;;;2.75;90.53
40245;BME280;25963;42.694;23.600;2022-12-20T10:04:44;96782.03;;;3.08;94.46
40245;BME280;25963;42.694;23.600;2022-12-20T10:07:41;96782.88;;;3.18;84.64
40245;BME280;25963;42.694;23.600;2022-12-20T10:13:03;96771.44;;;3.10;86.40
40245;BME280;25963;42.694;23.600;2022-12-20T10:15:36;96774.63;;;3.13;87.07
40245;BME280;25963;42.694;23.600;2022-12-20T10:18:08;96777.59;;;2.78;83.36
40245;BME280;25963;42.694;23.600;2022-12-20T10:26:21;96747.69;;;3.03;90.26
40245;BME280;25963;42.694;23.600;2022-12-20T10:28:47;96733.78;;;3.24;90.98
40245;BME280;25963;42.694;23.600;2022-12-20T10:31:14;96727.75;;;3.42;90.69
40245;BME280;25963;42.694;23.600;2022-12-20T10:33:40;96730.25;;;3.54;83.81
40245;BME280;25963;42.694;23.600;2022-12-20T10:36:27;96718.25;;;3.22;84.89
40245;BME280;25963;42.694;23.600;2022-12-20T10:39:01;96714.25;;;3.18;84.55
40245;BME280;25963;42.694;23.600;2022-12-20T10:41:32;96708.97;;;3.39;85.04
40245;BME280;25963;42.694;23.600;2022-12-20T10:44:05;96694.94;;;3.40;85.14
40245;BME280;25963;42.694;23.600;2022-12-20T10:46:44;96687.97;;;3.60;89.82
40245;BME280;25963;42.694;23.600;2022-12-20T10:49:34;96687.41;;;3.76;86.72
40245;BME280;25963;42.694;23.600;2022-12-20T10:57:17;96682.47;;;4.02;88.02
40245;BME280;25963;42.694;23.600;2022-12-20T10:59:46;96682.16;;;4.15;81.71
40245;BME280;25963;42.694;23.600;2022-12-20T11:02:36;96675.16;;;4.05;80.18
40245;BME280;25963;42.694;23.600;2022-12-20T11:05:18;96679.41;;;4.06;80.79
40245;BME280;25963;42.694;23.600;2022-12-20T11:08:05;96666.94;;;4.10;84.91
40245;BME280;25963;42.694;23.600;2022-12-20T11:10:31;96671.03;;;4.22;81.31
40245;BME280;25963;42.694;23.600;2022-12-20T11:12:58;96660.69;;;4.30;85.67
40245;BME280;25963;42.694;23.600;2022-12-20T11:15:32;96660.38;;;4.43;84.37
40245;BME280;25963;42.694;23.600;2022-12-20T11:18:03;96649.38;;;4.40;82.41
40245;BME280;25963;42.694;23.600;2022-12-20T11:20:38;96652.97;;;4.39;79.22
40245;BME280;25963;42.694;23.600;2022-12-20T11:23:38;96649.97;;;4.24;80.28
40245;BME280;25963;42.694;23.600;2022-12-20T11:26:25;96649.28;;;4.31;75.54
40245;BME280;25963;42.694;23.600;2022-12-20T11:35:00;96627.34;;;4.52;77.70
40245;BME280;25963;42.694;23.600;2022-12-20T11:37:29;96632.56;;;4.52;77.21
40245;BME280;25963;42.694;23.600;2022-12-20T11:40:25;96619.31;;;4.63;78.64
40245;BME280;25963;42.694;23.600;2022-12-20T11:46:05;96616.84;;;4.62;75.72
40245;BME280;25963;42.694;23.600;2022-12-20T11:54:00;96604.19;;;4.67;74.41
40245;BME280;25963;42.694;23.600;2022-12-20T11:56:36;96599.91;;;4.66;75.18
40245;BME280;25963;42.694;23.600;2022-12-20T12:02:04;96600.34;;;4.61;73.38
40245;BME280;25963;42.694;23.600;2022-12-20T12:04:33;96597.47;;;4.54;72.85
40245;BME280;25963;42.694;23.600;2022-12-20T12:07:19;96588.00;;;4.53;76.51
40245;BME280;25963;42.694;23.600;2022-12-20T12:12:33;96590.00;;;4.87;74.64
40245;BME280;25963;42.694;23.600;2022-12-20T12:17:40;96583.16;;;4.86;75.18
40245;BME280;25963;42.694;23.600;2022-12-20T12:20:25;96587.91;;;4.73;72.63
40245;BME280;25963;42.694;23.600;2022-12-20T12:25:48;96583.22;;;4.39;71.75
40245;BME280;25963;42.694;23.600;2022-12-20T12:28:14;96589.03;;;4.33;73.60
40245;BME280;25963;42.694;23.600;2022-12-20T12:30:57;96574.81;;;4.45;72.02
40245;BME280;25963;42.694;23.600;2022-12-20T12:33:31;96586.72;;;4.30;69.01
40245;BME280;25963;42.694;23.600;2022-12-20T12:44:40;96564.28;;;4.65;74.66
40245;BME280;25963;42.694;23.600;2022-12-20T12:47:19;96577.53;;;4.53;69.31
40245;BME280;25963;42.694;23.600;2022-12-20T12:49:48;96577.13;;;4.58;70.93
40245;BME280;25963;42.694;23.600;2022-12-20T12:52:44;96575.13;;;4.70;67.77
40245;BME280;25963;42.694;23.600;2022-12-20T13:03:34;96576.34;;;4.10;69.68
40245;BME280;25963;42.694;23.600;2022-12-20T13:09:16;96574.97;;;4.16;68.74
40245;BME280;25963;42.694;23.600;2022-12-20T13:11:42;96567.97;;;4.07;70.78
40245;BME280;25963;42.694;23.600;2022-12-20T13:16:46;96565.69;;;4.31;68.77
40245;BME280;25963;42.694;23.600;2022-12-20T13:19:17;96564.72;;;4.32;66.81
40245;BME280;25963;42.694;23.600;2022-12-20T13:21:52;96557.31;;;4.28;67.66
40245;BME280;25963;42.694;23.600;2022-12-20T13:24:53;96563.66;;;4.16;68.78
40245;BME280;25963;42.694;23.600;2022-12-20T13:27:27;96558.50;;;3.96;68.86
40245;BME280;25963;42.694;23.600;2022-12-20T13:38:08;96553.56;;;3.93;68.42
40245;BME280;25963;42.694;23.600;2022-12-20T13:40:59;96553.31;;;3.86;70.61
40245;BME280;25963;42.694;23.600;2022-12-20T13:43:36;96543.41;;;3.90;70.97
40245;BME280;25963;42.694;23.600;2022-12-20T13:51:18;96551.06;;;3.35;72.40
40245;BME280;25963;42.694;23.600;2022-12-20T13:53:56;96546.53;;;3.56;71.70
40245;BME280;25963;42.694;23.600;2022-12-20T13:59:02;96538.69;;;3.37;72.88
40245;BME280;25963;42.694;23.600;2022-12-20T14:01:29;96545.44;;;3.20;73.54
40245;BME280;25963;42.694;23.600;2022-12-20T14:03:55;96551.75;;;3.17;74.40
40245;BME280;25963;42.694;23.600;2022-12-20T14:06:23;96548.31;;;3.17;74.67
40245;BME280;25963;42.694;23.600;2022-12-20T14:08:50;96541.59;;;2.95;77.38
40245;BME280;25963;42.694;23.600;2022-12-20T14:11:22;96537.34;;;2.94;77.60
40245;BME280;25963;42.694;23.600;2022-12-20T14:13:56;96527.31;;;2.99;78.04
40245;BME280;25963;42.694;23.600;2022-12-20T14:16:23;96526.22;;;3.02;77.79
40245;BME280;25963;42.694;23.600;2022-12-20T14:19:13;96522.91;;;2.90;78.06
40245;BME280;25963;42.694;23.600;2022-12-20T14:21:42;96524.44;;;2.73;79.01
40245;BME280;25963;42.694;23.600;2022-12-20T14:24:14;96521.53;;;2.66;80.56
40245;BME280;25963;42.694;23.600;2022-12-20T14:26:43;96517.16;;;2.67;81.67
40245;BME280;25963;42.694;23.600;2022-12-20T14:29:11;96519.97;;;2.44;83.50
40245;BME280;25963;42.694;23.600;2022-12-20T14:31:41;96522.16;;;2.39;82.15
40245;BME280;25963;42.694;23.600;2022-12-20T14:34:14;96516.88;;;2.10;83.50